Time;durP1;ratioP1;P1;durP2;ratioP2;P2;SDS_P1;SDS_P2;PMS_P1;PMS_P2;Temp;Humidity;BMP_temperature;BMP_pressure;BME280_temperature;BME280_humidity;BME280_pressure;Samples;Min_cycle;Max_cycle;Signal;HPM_P1;HPM_P2
2023/07/20 00:00:17;;;;;;;4.20;3.00;;;17.20;99.90;;;;;;5056309;28;20174;-80
2023/07/20 00:02:43;;;;;;;3.57;3.00;;;17.20;99.90;;;;;;5038151;28;20174;-80
2023/07/20 00:05:08;;;;;;;6.03;2.70;;;17.30;99.90;;;;;;5056283;28;20174;-82
2023/07/20 00:07:34;;;;;;;3.50;3.00;;;17.30;99.90;;;;;;5037825;28;20166;-80
2023/07/20 00:09:59;;;;;;;42.37;7.73;;;17.30;99.90;;;;;;5055467;28;20184;-80
2023/07/20 00:12:25;;;;;;;4.33;2.90;;;17.20;99.90;;;;;;5052140;28;20185;-80
2023/07/20 00:14:53;;;;;;;4.23;2.83;;;17.20;99.90;;;;;;5049747;28;20205;-80
2023/07/20 00:17:19;;;;;;;4.63;3.00;;;17.10;99.90;;;;;;5028077;28;20180;-82
2023/07/20 00:19:44;;;;;;;4.40;2.83;;;17.10;99.90;;;;;;5017304;28;20218;-80
2023/07/20 00:22:10;;;;;;;5.40;2.97;;;17.10;99.90;;;;;;5036109;28;20214;-80
2023/07/20 00:24:36;;;;;;;3.80;2.70;;;17.00;99.90;;;;;;5017710;28;20195;-80
2023/07/20 00:27:02;;;;;;;4.93;2.80;;;17.00;99.90;;;;;;5035797;28;20206;-81
2023/07/20 00:29:28;;;;;;;4.33;2.63;;;17.00;99.90;;;;;;5035842;28;20182;-80
2023/07/20 00:31:53;;;;;;;3.37;2.70;;;17.00;99.90;;;;;;5017030;28;20177;-80
2023/07/20 00:34:19;;;;;;;3.90;2.73;;;16.90;99.90;;;;;;5043722;28;20198;-80
2023/07/20 00:36:45;;;;;;;4.23;3.73;;;16.80;99.90;;;;;;5048335;28;20185;-80
2023/07/20 00:39:10;;;;;;;5.37;3.00;;;16.70;99.90;;;;;;5055305;28;20265;-80
2023/07/20 00:41:36;;;;;;;5.57;2.60;;;16.70;99.90;;;;;;5047932;28;20552;-80
2023/07/20 00:44:01;;;;;;;5.50;2.80;;;16.70;99.90;;;;;;5025847;28;20197;-80
2023/07/20 00:46:27;;;;;;;5.43;2.60;;;16.70;99.90;;;;;;5021313;28;20183;-80
2023/07/20 00:48:53;;;;;;;3.17;2.20;;;16.60;99.90;;;;;;5048531;28;20185;-80
2023/07/20 00:51:21;;;;;;;4.23;2.37;;;16.60;99.90;;;;;;5034652;28;20243;-80
2023/07/20 00:53:47;;;;;;;2.43;2.23;;;16.50;99.90;;;;;;5036703;28;20292;-80
2023/07/20 00:56:12;;;;;;;2.00;1.50;;;16.50;99.90;;;;;;5055070;28;20212;-80
2023/07/20 00:58:38;;;;;;;2.73;1.53;;;16.40;99.90;;;;;;5037454;28;20327;-80
2023/07/20 01:01:03;;;;;;;1.50;1.40;;;16.30;99.90;;;;;;5031952;28;20281;-80
2023/07/20 01:03:29;;;;;;;2.07;1.33;;;16.30;99.90;;;;;;5025491;28;20273;-79
2023/07/20 01:06:00;;;;;;;2.20;1.70;;;16.20;99.90;;;;;;5031403;28;20200;-81
2023/07/20 01:09:08;;;;;;;1.60;1.50;;;16.10;99.90;;;;;;5037469;28;20184;-80
2023/07/20 01:11:39;;;;;;;2.93;1.70;;;16.00;99.90;;;;;;5023157;28;20189;-80
2023/07/20 01:14:05;;;;;;;2.13;1.50;;;15.90;99.90;;;;;;5036879;28;20569;-80
2023/07/20 01:16:30;;;;;;;3.00;1.87;;;16.00;99.90;;;;;;5037005;28;20184;-80
2023/07/20 01:18:56;;;;;;;2.77;1.90;;;15.90;99.90;;;;;;5054606;28;20209;-80
2023/07/20 01:21:30;;;;;;;2.57;1.73;;;15.80;99.90;;;;;;5054427;28;20177;-80
2023/07/20 01:24:22;;;;;;;3.77;2.00;;;15.70;99.90;;;;;;5036823;28;20196;-80
2023/07/20 01:27:05;;;;;;;2.43;1.77;;;15.60;99.90;;;;;;5054367;28;20520;-80
2023/07/20 01:29:36;;;;;;;3.37;1.87;;;15.70;99.90;;;;;;5054832;28;20177;-80
2023/07/20 01:32:04;;;;;;;3.13;2.13;;;15.50;99.90;;;;;;5036528;28;20249;-80
2023/07/20 01:34:30;;;;;;;4.47;1.87;;;15.50;99.90;;;;;;5054646;28;20229;-80
2023/07/20 01:36:57;;;;;;;8.03;2.17;;;15.40;99.90;;;;;;5054656;28;20269;-81
2023/07/20 01:39:23;;;;;;;4.07;2.27;;;15.40;99.90;;;;;;5023070;28;20202;-80
2023/07/20 01:41:49;;;;;;;2.00;1.63;;;15.40;99.90;;;;;;5039997;28;20174;-80
2023/07/20 01:44:15;;;;;;;3.07;1.97;;;15.60;99.90;;;;;;5016558;28;20277;-80
2023/07/20 01:46:40;;;;;;;1.67;1.57;;;15.60;99.90;;;;;;5034689;28;20174;-80
2023/07/20 01:49:06;;;;;;;3.60;1.80;;;15.60;99.90;;;;;;5037385;28;20185;-79
2023/07/20 01:51:32;;;;;;;5.00;1.80;;;15.50;99.90;;;;;;5020120;28;20364;-80
2023/07/20 01:53:57;;;;;;;3.03;2.20;;;15.50;99.90;;;;;;5038365;28;20210;-80
2023/07/20 01:56:23;;;;;;;1.90;1.77;;;15.50;99.90;;;;;;5038271;28;20186;-81
2023/07/20 01:58:48;;;;;;;2.60;2.07;;;15.40;99.90;;;;;;5039391;28;20212;-80
2023/07/20 02:01:14;;;;;;;4.27;2.00;;;15.30;99.90;;;;;;5019997;28;20197;-80
2023/07/20 02:03:39;;;;;;;2.17;1.80;;;15.30;99.90;;;;;;5020448;28;20292;-80
2023/07/20 02:06:05;;;;;;;1.93;1.47;;;15.30;99.90;;;;;;5038059;28;20171;-81
2023/07/20 02:08:31;;;;;;;2.30;1.73;;;15.30;99.90;;;;;;5020090;28;20213;-80
2023/07/20 02:10:56;;;;;;;2.00;1.80;;;15.30;99.90;;;;;;5019972;28;20309;-80
2023/07/20 02:13:22;;;;;;;3.67;1.77;;;15.30;99.90;;;;;;5020671;28;20264;-80
2023/07/20 02:15:49;;;;;;;3.40;1.97;;;15.20;99.90;;;;;;5038392;28;20188;-80
2023/07/20 02:18:14;;;;;;;2.17;1.97;;;15.20;99.90;;;;;;5020411;28;22152;-80
2023/07/20 02:20:41;;;;;;;2.63;2.10;;;15.30;99.90;;;;;;5037517;28;20257;-80
2023/07/20 02:23:07;;;;;;;4.47;1.90;;;15.40;99.90;;;;;;5038048;28;20281;-79
2023/07/20 02:25:32;;;;;;;3.53;2.40;;;15.30;99.90;;;;;;5020084;28;20213;-80
2023/07/20 02:27:58;;;;;;;2.13;1.93;;;15.20;99.90;;;;;;5019965;28;20206;-82
2023/07/20 02:30:24;;;;;;;5.43;1.87;;;15.10;99.90;;;;;;5019667;28;20243;-80
2023/07/20 02:32:50;;;;;;;2.57;2.00;;;14.90;99.90;;;;;;5037595;28;20190;-80
2023/07/20 02:35:16;;;;;;;3.10;2.00;;;14.90;99.90;;;;;;5019988;28;20201;-80
2023/07/20 02:37:42;;;;;;;3.23;1.93;;;14.90;99.90;;;;;;5019852;28;20546;-80
2023/07/20 02:40:08;;;;;;;3.60;1.87;;;14.90;99.90;;;;;;5027303;28;20206;-80
2023/07/20 02:42:34;;;;;;;3.37;1.90;;;15.10;99.90;;;;;;5057840;28;20177;-80
2023/07/20 02:45:00;;;;;;;4.63;1.97;;;15.00;99.90;;;;;;5057192;28;20184;-79
2023/07/20 02:47:26;;;;;;;2.70;1.90;;;15.00;99.90;;;;;;5039312;28;20188;-80
2023/07/20 02:49:51;;;;;;;2.00;1.80;;;14.90;99.90;;;;;;5056844;28;20174;-79
2023/07/20 02:52:17;;;;;;;2.77;1.90;;;14.90;99.90;;;;;;5039204;28;20178;-80
2023/07/20 02:54:42;;;;;;;2.43;2.13;;;14.90;99.90;;;;;;5039457;28;20279;-80
2023/07/20 02:57:08;;;;;;;3.07;2.43;;;14.80;99.90;;;;;;5039758;28;20185;-80
2023/07/20 02:59:33;;;;;;;2.90;1.77;;;14.80;99.90;;;;;;5057000;28;20206;-81
2023/07/20 03:01:59;;;;;;;3.00;1.90;;;14.80;99.90;;;;;;5038651;28;20224;-80
2023/07/20 03:04:27;;;;;;;3.13;2.07;;;14.80;99.90;;;;;;5039335;28;20216;-80
2023/07/20 03:06:53;;;;;;;2.40;2.00;;;14.90;99.90;;;;;;5039228;28;20568;-79
2023/07/20 03:09:19;;;;;;;6.20;2.17;;;15.00;99.90;;;;;;5057089;28;20644;-80
2023/07/20 03:11:44;;;;;;;2.20;2.00;;;15.10;99.90;;;;;;5038696;28;20560;-80
2023/07/20 03:14:10;;;;;;;3.63;1.70;;;15.00;99.90;;;;;;5039001;28;20255;-80
2023/07/20 03:16:36;;;;;;;2.00;1.80;;;15.00;99.90;;;;;;5056901;28;20261;-80
2023/07/20 03:19:02;;;;;;;2.20;2.00;;;15.00;99.90;;;;;;5056842;28;20204;-79
2023/07/20 03:21:27;;;;;;;2.27;2.03;;;15.00;99.90;;;;;;5038327;28;20174;-80
2023/07/20 03:23:53;;;;;;;3.20;2.10;;;15.00;99.90;;;;;;5057000;28;20305;-80
2023/07/20 03:26:19;;;;;;;3.47;1.93;;;15.00;99.90;;;;;;5038763;28;20166;-80
2023/07/20 03:28:45;;;;;;;8.13;1.97;;;15.00;99.90;;;;;;5038925;28;20312;-80
2023/07/20 03:31:10;;;;;;;2.63;1.87;;;15.00;99.90;;;;;;5056541;28;20190;-81
2023/07/20 03:33:36;;;;;;;6.43;1.90;;;15.10;99.90;;;;;;5038666;28;20278;-80
2023/07/20 03:36:01;;;;;;;2.90;2.10;;;15.10;99.90;;;;;;5056567;28;20170;-79
2023/07/20 03:38:27;;;;;;;2.57;1.90;;;15.20;99.90;;;;;;5056476;28;20594;-80
2023/07/20 03:40:55;;;;;;;2.20;1.73;;;15.20;99.90;;;;;;5055926;28;20228;-80
2023/07/20 03:43:22;;;;;;;2.13;1.70;;;15.10;99.90;;;;;;5038288;28;20189;-80
2023/07/20 03:45:48;;;;;;;4.10;1.83;;;15.10;99.90;;;;;;5038421;28;20174;-80
2023/07/20 03:48:18;;;;;;;1.97;1.70;;;15.10;99.90;;;;;;5056491;28;20236;-80
2023/07/20 03:50:45;;;;;;;2.43;1.80;;;15.10;99.90;;;;;;5055709;28;20197;-80
2023/07/20 03:53:11;;;;;;;2.90;2.27;;;15.00;99.90;;;;;;5056126;28;20570;-80
2023/07/20 03:55:37;;;;;;;4.57;1.97;;;14.90;99.90;;;;;;5038390;28;20176;-80
2023/07/20 03:58:03;;;;;;;2.73;1.80;;;15.00;99.90;;;;;;5038448;28;20177;-80
2023/07/20 04:00:28;;;;;;;1.80;1.70;;;14.90;99.90;;;;;;5056255;28;20534;-79
2023/07/20 04:05:22;;;;;;;2.87;2.37;;;14.90;99.90;;;;;;5054616;23;20253;-81
2023/07/20 04:07:48;;;;;;;3.33;2.57;;;14.90;99.90;;;;;;5035608;28;20197;-81
2023/07/20 04:10:13;;;;;;;5.20;2.60;;;15.00;99.90;;;;;;5034771;28;20174;-81
2023/07/20 04:12:39;;;;;;;3.10;2.80;;;15.20;99.90;;;;;;5017191;28;20170;-81
2023/07/20 04:15:06;;;;;;;3.30;2.50;;;15.30;99.90;;;;;;5017551;28;20186;-81
2023/07/20 04:17:31;;;;;;;4.07;2.87;;;15.30;99.90;;;;;;5017616;28;20175;-81
2023/07/20 04:19:57;;;;;;;4.50;2.60;;;15.30;99.90;;;;;;5034908;28;20201;-80
2023/07/20 04:22:22;;;;;;;6.30;3.10;;;15.40;99.90;;;;;;5035651;28;20198;-81
2023/07/20 04:24:48;;;;;;;5.93;2.70;;;15.40;99.90;;;;;;5017847;28;20193;-81
2023/07/20 04:27:13;;;;;;;5.43;2.60;;;15.50;99.90;;;;;;5018122;28;20289;-81
2023/07/20 04:29:39;;;;;;;3.63;2.43;;;15.50;99.90;;;;;;5017069;28;20175;-81
2023/07/20 04:32:05;;;;;;;4.30;2.60;;;15.50;99.90;;;;;;5017936;28;20182;-81
2023/07/20 04:34:31;;;;;;;2.83;2.20;;;15.60;99.90;;;;;;5034952;28;20205;-81
2023/07/20 04:36:56;;;;;;;2.70;2.50;;;15.70;99.90;;;;;;5017701;28;20178;-81
2023/07/20 04:39:22;;;;;;;2.77;2.40;;;15.80;99.90;;;;;;5017311;28;20198;-81
2023/07/20 04:41:47;;;;;;;3.07;2.77;;;15.80;99.90;;;;;;5034409;28;20174;-82
2023/07/20 04:44:13;;;;;;;2.77;2.47;;;15.90;99.90;;;;;;5025242;28;20341;-81
2023/07/20 04:46:40;;;;;;;3.70;2.70;;;15.90;99.90;;;;;;5034719;28;20178;-81
2023/07/20 04:49:06;;;;;;;6.10;3.10;;;16.00;99.90;;;;;;5034743;28;20239;-81
2023/07/20 04:51:31;;;;;;;4.33;2.43;;;16.00;99.90;;;;;;5042671;28;20174;-81
2023/07/20 04:53:57;;;;;;;2.97;2.60;;;16.00;99.90;;;;;;5049719;28;20257;-80
2023/07/20 04:56:24;;;;;;;3.30;2.47;;;16.10;99.90;;;;;;5035910;28;20174;-79
2023/07/20 04:58:50;;;;;;;3.80;2.73;;;16.10;99.90;;;;;;5034083;28;20202;-79
2023/07/20 05:01:15;;;;;;;4.67;3.40;;;16.10;99.90;;;;;;5051500;28;20694;-79
2023/07/20 05:03:41;;;;;;;5.17;3.60;;;16.10;99.90;;;;;;5036372;28;20208;-80
2023/07/20 05:06:06;;;;;;;5.70;4.03;;;16.20;99.90;;;;;;5054881;28;20176;-80
2023/07/20 05:08:32;;;;;;;6.50;3.83;;;16.20;99.90;;;;;;5035306;28;20169;-79
2023/07/20 05:10:59;;;;;;;5.07;4.03;;;16.20;99.90;;;;;;5054119;28;20204;-80
2023/07/20 05:13:25;;;;;;;6.30;4.30;;;16.20;99.90;;;;;;5035141;28;20193;-79
2023/07/20 05:15:54;;;;;;;5.07;4.13;;;16.30;99.90;;;;;;5034957;28;20178;-77
2023/07/20 05:18:20;;;;;;;5.53;4.50;;;16.40;99.90;;;;;;5052844;28;20303;-78
2023/07/20 05:20:49;;;;;;;4.63;4.13;;;16.40;99.90;;;;;;5052460;28;20178;-78
2023/07/20 05:23:21;;;;;;;4.77;4.17;;;16.50;99.90;;;;;;5051589;28;20177;-78
2023/07/20 05:25:53;;;;;;;5.13;4.37;;;17.20;1.00;;;;;;5052887;28;20162;-77
2023/07/20 05:28:19;;;;;;;7.67;4.50;;;17.60;1.00;;;;;;5034895;28;20166;-79
2023/07/20 05:30:45;;;;;;;4.43;3.17;;;18.00;1.00;;;;;;5051977;28;20166;-78
2023/07/20 05:33:10;;;;;;;3.63;2.53;;;17.80;1.00;;;;;;5052595;28;20201;-79
2023/07/20 05:35:37;;;;;;;4.37;2.83;;;17.70;99.90;;;;;;5034664;28;20170;-79
2023/07/20 05:38:05;;;;;;;5.93;3.27;;;17.90;1.00;;;;;;5022538;28;20213;-78
2023/07/20 05:40:30;;;;;;;4.53;3.17;;;17.90;1.00;;;;;;5031863;28;20182;-78
2023/07/20 05:42:56;;;;;;;4.97;2.97;;;17.90;1.00;;;;;;5014699;28;20233;-78
2023/07/20 05:45:22;;;;;;;4.10;2.40;;;17.60;1.00;;;;;;5032488;28;20668;-78
2023/07/20 05:47:48;;;;;;;5.70;2.90;;;17.80;1.00;;;;;;5032694;28;20174;-78
2023/07/20 05:50:14;;;;;;;3.47;3.03;;;17.90;99.90;;;;;;5014707;28;20661;-79
2023/07/20 05:52:40;;;;;;;2.80;2.47;;;18.10;99.90;;;;;;5015161;28;20174;-79
2023/07/20 05:55:06;;;;;;;5.40;2.70;;;18.10;99.90;;;;;;5014752;28;20190;-84
2023/07/20 05:57:32;;;;;;;3.93;3.17;;;17.90;17.60;;;;;;5016715;28;20166;-79
2023/07/20 05:59:58;;;;;;;5.60;2.57;;;17.80;99.90;;;;;;5033738;28;20205;-80
2023/07/20 06:02:24;;;;;;;4.27;2.90;;;17.80;1.00;;;;;;5043387;28;20176;-80
2023/07/20 06:04:49;;;;;;;5.47;2.90;;;17.70;1.00;;;;;;5045050;28;20198;-80
2023/07/20 06:07:15;;;;;;;3.80;2.57;;;17.70;1.00;;;;;;5030685;28;20182;-79
2023/07/20 06:09:41;;;;;;;3.07;2.73;;;17.70;1.00;;;;;;5044413;28;20656;-82
2023/07/20 06:12:07;;;;;;;4.30;2.80;;;17.50;99.90;;;;;;5025050;28;20174;-82
2023/07/20 06:14:33;;;;;;;3.03;2.50;;;17.40;1.00;;;;;;5033700;28;20194;-82
2023/07/20 06:16:58;;;;;;;4.97;2.60;;;17.60;1.00;;;;;;5033387;28;20185;-82
2023/07/20 06:19:24;;;;;;;3.87;2.30;;;17.60;83.30;;;;;;5018307;28;20234;-82
2023/07/20 06:21:50;;;;;;;2.90;2.20;;;17.60;1.00;;;;;;5021882;28;20554;-82
2023/07/20 06:24:16;;;;;;;4.67;2.40;;;17.60;55.80;;;;;;5015930;28;20282;-84
2023/07/20 06:26:42;;;;;;;4.60;2.30;;;17.60;99.90;;;;;;5033734;28;20171;-82
2023/07/20 06:29:11;;;;;;;3.90;2.93;;;17.50;99.90;;;;;;5033343;28;20262;-82
2023/07/20 06:31:37;;;;;;;4.63;2.70;;;17.40;1.00;;;;;;5032639;28;20716;-82
2023/07/20 06:34:03;;;;;;;3.10;2.03;;;17.50;99.90;;;;;;5023455;28;20201;-82
2023/07/20 06:36:29;;;;;;;2.90;2.00;;;17.70;1.00;;;;;;5049032;28;20170;-82
2023/07/20 06:38:57;;;;;;;3.63;2.37;;;17.80;1.00;;;;;;5056683;28;20262;-82
2023/07/20 06:41:23;;;;;;;3.57;2.20;;;17.70;1.00;;;;;;5056621;28;20180;-80
2023/07/20 06:43:49;;;;;;;2.73;2.13;;;17.70;99.90;;;;;;5056693;28;20190;-82
2023/07/20 06:46:15;;;;;;;3.50;2.00;;;17.80;99.90;;;;;;5039279;28;20181;-82
2023/07/20 06:48:40;;;;;;;3.83;1.80;;;17.70;99.90;;;;;;5056964;28;20240;-82
2023/07/20 06:51:06;;;;;;;2.87;2.00;;;17.70;99.90;;;;;;5025429;28;20269;-82
2023/07/20 06:53:32;;;;;;;3.67;2.20;;;17.70;99.90;;;;;;5029817;28;20216;-82
2023/07/20 06:55:58;;;;;;;4.03;2.00;;;17.80;99.90;;;;;;5038958;28;20178;-82
2023/07/20 06:58:24;;;;;;;2.53;1.73;;;17.90;99.90;;;;;;5051267;28;20659;-81
2023/07/20 07:00:49;;;;;;;3.23;2.50;;;17.90;1.00;;;;;;5049831;28;20177;-82
2023/07/20 07:03:16;;;;;;;2.80;2.33;;;18.00;99.90;;;;;;5056668;28;20174;-82
2023/07/20 07:05:41;;;;;;;4.43;2.63;;;18.10;1.00;;;;;;5039345;28;20264;-83
2023/07/20 07:08:07;;;;;;;2.37;2.00;;;18.30;99.90;;;;;;5057226;28;20201;-82
2023/07/20 07:10:34;;;;;;;3.63;2.23;;;18.30;99.90;;;;;;5055812;28;20178;-79
2023/07/20 07:13:00;;;;;;;4.67;2.47;;;18.30;99.90;;;;;;5042038;28;20174;-82
2023/07/20 07:15:27;;;;;;;3.40;2.23;;;18.40;1.00;;;;;;5056963;28;20181;-83
2023/07/20 07:17:53;;;;;;;2.10;1.87;;;18.40;99.90;;;;;;5043924;28;20175;-79
2023/07/20 07:20:18;;;;;;;2.83;2.40;;;18.40;99.90;;;;;;5016818;28;20284;-82
2023/07/20 07:22:45;;;;;;;2.40;2.00;;;18.40;99.90;;;;;;5036757;28;20181;-83
2023/07/20 07:25:10;;;;;;;2.50;1.90;;;18.40;99.90;;;;;;5022889;28;20191;-82
2023/07/20 07:27:36;;;;;;;3.97;2.27;;;18.30;1.00;;;;;;5019115;28;20174;-82
2023/07/20 07:30:03;;;;;;;3.60;2.63;;;18.40;1.00;;;;;;5018572;28;20202;-81
2023/07/20 07:32:29;;;;;;;2.30;1.93;;;18.40;1.00;;;;;;5019290;28;20182;-82
2023/07/20 07:34:55;;;;;;;2.27;1.80;;;18.50;1.00;;;;;;5037095;28;20700;-82
2023/07/20 07:37:20;;;;;;;5.30;2.23;;;18.50;99.90;;;;;;5045676;28;20557;-82
2023/07/20 07:39:46;;;;;;;4.00;2.53;;;18.60;99.90;;;;;;5049248;28;20201;-81
2023/07/20 07:42:12;;;;;;;2.50;2.30;;;18.60;99.90;;;;;;5038898;28;20257;-81
2023/07/20 07:44:38;;;;;;;5.00;2.60;;;18.60;99.90;;;;;;5056072;28;20197;-82
2023/07/20 07:47:04;;;;;;;3.67;2.50;;;18.60;99.90;;;;;;5037789;28;20170;-81
2023/07/20 07:49:29;;;;;;;3.37;2.67;;;18.60;99.90;;;;;;5037440;28;20182;-78
2023/07/20 07:51:55;;;;;;;4.30;2.80;;;18.80;99.90;;;;;;5054854;28;20174;-81
2023/07/20 07:54:20;;;;;;;4.23;2.73;;;18.90;1.00;;;;;;5054991;28;20196;-81
2023/07/20 07:56:46;;;;;;;3.77;3.10;;;19.10;99.90;;;;;;5037243;28;20170;-81
2023/07/20 07:59:11;;;;;;;3.20;2.90;;;19.30;22.60;;;;;;5054127;28;20236;-81
2023/07/20 08:01:37;;;;;;;3.50;2.93;;;19.20;1.00;;;;;;5052567;28;20280;-81
2023/07/20 08:04:03;;;;;;;3.60;2.77;;;18.90;99.90;;;;;;5053905;28;20232;-81
2023/07/20 08:06:29;;;;;;;5.00;3.10;;;18.70;99.90;;;;;;5054463;28;20668;-81
2023/07/20 08:08:54;;;;;;;4.13;3.07;;;18.60;1.00;;;;;;5054935;28;20182;-81
2023/07/20 08:11:20;;;;;;;3.33;2.83;;;18.70;1.00;;;;;;5054638;28;20181;-81
2023/07/20 08:13:46;;;;;;;4.50;3.70;;;19.10;1.00;;;;;;5036705;28;20691;-83
2023/07/20 08:16:11;;;;;;;3.80;3.33;;;19.50;99.90;;;;;;5054683;28;20183;-81
2023/07/20 08:18:37;;;;;;;4.80;3.10;;;19.60;99.90;;;;;;5036779;28;20206;-81
2023/07/20 08:21:03;;;;;;;4.10;3.37;;;19.70;1.00;;;;;;5053886;28;20181;-81
2023/07/20 08:23:28;;;;;;;3.60;2.67;;;19.90;99.90;;;;;;5036116;28;20197;-81
2023/07/20 08:25:54;;;;;;;3.23;2.93;;;20.10;99.90;;;;;;5036551;28;20205;-82
2023/07/20 08:28:20;;;;;;;5.77;2.90;;;20.10;1.00;;;;;;5053751;28;20170;-79
2023/07/20 08:30:47;;;;;;;5.70;3.13;;;19.80;1.00;;;;;;5053674;28;20522;-81
2023/07/20 08:33:14;;;;;;;9.50;4.13;;;19.80;99.90;;;;;;5036058;28;20174;-81
2023/07/20 08:35:40;;;;;;;3.80;3.07;;;19.70;1.00;;;;;;5054353;28;20197;-81
2023/07/20 08:38:05;;;;;;;3.63;3.33;;;19.50;28.80;;;;;;5053909;28;20212;-81
2023/07/20 08:40:32;;;;;;;4.67;3.20;;;19.40;99.90;;;;;;5053596;28;20205;-81
2023/07/20 08:43:02;;;;;;;4.70;2.80;;;19.50;1.00;;;;;;5053865;28;20182;-81
2023/07/20 08:45:31;;;;;;;3.77;3.00;;;19.50;27.90;;;;;;5047676;28;20560;-81
2023/07/20 08:47:59;;;;;;;4.37;2.90;;;19.50;1.00;;;;;;5026657;28;20210;-81
2023/07/20 08:50:26;;;;;;;3.67;2.77;;;19.30;99.90;;;;;;5053204;28;20169;-81
2023/07/20 08:52:54;;;;;;;4.43;2.73;;;19.30;1.00;;;;;;5017401;28;20186;-81
2023/07/20 08:55:23;;;;;;;4.17;2.87;;;19.30;99.90;;;;;;5041385;28;20204;-82
2023/07/20 08:57:52;;;;;;;3.93;2.57;;;19.40;1.00;;;;;;5025688;28;20776;-81
2023/07/20 09:00:20;;;;;;;3.97;3.00;;;19.60;99.90;;;;;;5032779;28;20653;-79
2023/07/20 09:02:46;;;;;;;6.27;2.60;;;20.10;1.00;;;;;;5033964;28;20174;-81
2023/07/20 09:05:14;;;;;;;4.43;2.97;;;20.40;1.00;;;;;;5044066;28;20220;-80
2023/07/20 09:07:40;;;;;;;2.70;2.45;;;20.70;99.10;;;;;;5045248;28;20197;-79
2023/07/20 09:10:07;;;;;;;2.47;2.28;;;20.90;1.00;;;;;;5051971;28;20196;-79
2023/07/20 09:12:36;;;;;;;3.92;3.45;;;21.10;1.00;;;;;;5034447;28;20178;-79
2023/07/20 09:15:02;;;;;;;3.40;3.00;;;21.10;1.00;;;;;;5052878;28;20197;-80
2023/07/20 09:17:28;;;;;;;4.07;3.03;;;21.00;1.00;;;;;;5052463;28;20178;-79
2023/07/20 09:19:53;;;;;;;3.90;2.63;;;20.80;95.10;;;;;;5051860;28;20251;-80
2023/07/20 09:22:19;;;;;;;2.83;2.50;;;20.90;1.00;;;;;;5034502;28;20205;-79
2023/07/20 09:24:45;;;;;;;3.25;2.50;;;21.10;1.00;;;;;;5052303;28;20182;-78
2023/07/20 09:27:11;;;;;;;2.95;2.13;;;21.60;1.00;;;;;;5034727;28;20201;-78
2023/07/20 09:29:50;;;;;;;2.80;2.40;;;21.80;4.30;;;;;;5044031;28;20207;-77
2023/07/20 09:32:21;;;;;;;4.25;3.08;;;21.60;99.90;;;;;;5052490;28;20173;-78
2023/07/20 09:34:49;;;;;;;2.75;2.50;;;21.60;99.90;;;;;;5034543;28;20186;-79
2023/07/20 09:37:23;;;;;;;2.90;2.30;;;21.50;99.90;;;;;;5034194;28;20182;-80
2023/07/20 09:39:51;;;;;;;2.70;2.45;;;21.20;1.00;;;;;;5033427;28;20220;-79
2023/07/20 09:42:18;;;;;;;3.20;2.00;;;21.10;99.90;;;;;;5051802;28;20663;-79
2023/07/20 09:44:44;;;;;;;3.55;2.05;;;21.20;99.90;;;;;;5033942;28;20217;-79
2023/07/20 09:47:10;;;;;;;3.08;2.20;;;21.40;65.00;;;;;;5033967;28;20206;-78
2023/07/20 09:49:42;;;;;;;3.53;2.15;;;21.40;99.90;;;;;;5050997;28;20192;-75
2023/07/20 09:52:11;;;;;;;2.50;1.90;;;21.30;99.90;;;;;;5051991;28;20184;-79
2023/07/20 09:54:40;;;;;;;2.10;1.85;;;21.10;99.90;;;;;;5033608;28;20650;-78
2023/07/20 09:57:10;;;;;;;2.42;1.90;;;20.90;99.90;;;;;;5051737;28;20177;-78
2023/07/20 09:59:36;;;;;;;2.30;2.10;;;20.60;99.90;;;;;;5051021;28;20189;-75
2023/07/20 10:02:04;;;;;;;4.20;2.30;;;20.60;99.90;;;;;;5053097;28;20173;-78
2023/07/20 10:04:33;;;;;;;2.75;2.20;;;20.50;99.90;;;;;;5034653;28;20201;-78
2023/07/20 10:07:04;;;;;;;6.93;2.85;;;20.50;1.00;;;;;;5025634;28;20173;-79
2023/07/20 10:09:32;;;;;;;5.28;3.47;;;20.50;31.60;;;;;;5053317;28;20548;-82
2023/07/20 10:11:59;;;;;;;5.28;3.38;;;20.40;1.00;;;;;;5056224;28;20644;-81
2023/07/20 10:14:30;;;;;;;5.57;3.80;;;20.40;99.90;;;;;;5038231;28;20198;-80
2023/07/20 10:17:00;;;;;;;6.32;3.92;;;20.30;1.00;;;;;;5056744;28;20182;-81
2023/07/20 10:19:44;;;;;;;4.70;3.50;;;20.20;1.00;;;;;;5056450;28;20208;-81
2023/07/20 10:22:15;;;;;;;6.10;3.95;;;20.10;1.00;;;;;;5056798;28;20169;-82
2023/07/20 10:24:44;;;;;;;6.57;3.58;;;19.70;99.90;;;;;;5055595;28;20193;-84
2023/07/20 10:27:10;;;;;;;5.63;3.70;;;19.90;1.00;;;;;;5056161;28;20177;-81
2023/07/20 10:29:36;;;;;;;5.35;3.85;;;20.00;99.90;;;;;;5055414;28;20198;-77
2023/07/20 10:32:02;;;;;;;5.40;3.22;;;19.90;1.00;;;;;;5055870;28;20655;-81
2023/07/20 10:34:28;;;;;;;4.32;2.95;;;19.80;99.90;;;;;;5038259;28;20288;-81
2023/07/20 10:36:54;;;;;;;5.68;3.83;;;20.10;99.90;;;;;;5038353;28;20184;-81
2023/07/20 10:39:28;;;;;;;4.35;3.35;;;20.50;99.90;;;;;;5038196;28;20229;-81
2023/07/20 10:42:07;;;;;;;4.00;3.60;;;21.20;99.90;;;;;;5055460;28;20180;-80
2023/07/20 10:44:33;;;;;;;6.22;3.67;;;21.70;99.90;;;;;;5055661;28;20189;-80
2023/07/20 10:47:01;;;;;;;5.00;3.60;;;21.90;99.90;;;;;;5037963;28;20178;-80
2023/07/20 10:49:27;;;;;;;3.95;3.40;;;22.10;1.00;;;;;;5037807;28;20256;-80
2023/07/20 10:51:59;;;;;;;6.30;3.70;;;22.10;1.00;;;;;;5055044;28;20666;-81
2023/07/20 10:54:27;;;;;;;4.55;3.67;;;22.50;1.00;;;;;;5055462;28;20217;-80
2023/07/20 10:56:54;;;;;;;6.13;3.90;;;22.60;1.00;;;;;;5055500;28;20178;-80
2023/07/20 10:59:38;;;;;;;4.38;3.15;;;22.60;99.90;;;;;;5037716;28;20292;-80
2023/07/20 11:02:08;;;;;;;2.83;2.58;;;22.50;99.90;;;;;;5056067;28;20265;-80
2023/07/20 11:04:42;;;;;;;2.78;2.35;;;21.90;1.00;;;;;;5037373;28;20300;-80
2023/07/20 11:07:07;;;;;;;2.45;2.13;;;21.90;99.90;;;;;;5055729;28;20276;-80
2023/07/20 11:09:41;;;;;;;2.05;1.88;;;21.90;99.90;;;;;;5037167;28;20660;-80
2023/07/20 11:12:14;;;;;;;2.58;1.95;;;21.80;67.00;;;;;;5055480;28;20196;-80
2023/07/20 11:14:41;;;;;;;3.22;2.05;;;21.70;99.90;;;;;;5033075;28;20190;-80
2023/07/20 11:17:14;;;;;;;2.13;1.90;;;21.50;73.40;;;;;;5051095;28;20715;-80
2023/07/20 11:19:40;;;;;;;2.60;1.80;;;21.60;99.90;;;;;;5036475;28;20206;-80
2023/07/20 11:22:07;;;;;;;3.50;1.63;;;21.70;7.40;;;;;;5054107;28;20170;-80
2023/07/20 11:24:33;;;;;;;3.53;2.03;;;21.80;1.00;;;;;;5037188;28;20189;-80
2023/07/20 11:27:01;;;;;;;1.75;1.60;;;22.00;1.00;;;;;;5055185;28;20180;-80
2023/07/20 11:29:27;;;;;;;1.92;1.48;;;22.00;1.00;;;;;;5036953;28;20181;-80
2023/07/20 11:31:53;;;;;;;1.75;1.65;;;22.00;1.00;;;;;;5054391;28;20185;-80
2023/07/20 11:34:20;;;;;;;1.90;1.70;;;22.30;1.00;;;;;;5036679;28;20189;-80
2023/07/20 11:36:48;;;;;;;2.60;1.90;;;22.60;99.90;;;;;;5037086;28;20181;-82
2023/07/20 11:39:15;;;;;;;3.15;1.63;;;22.90;99.90;;;;;;5036599;28;20202;-80
2023/07/20 11:41:49;;;;;;;2.13;1.80;;;23.10;35.20;;;;;;5054224;28;20180;-80
2023/07/20 11:44:19;;;;;;;1.65;1.50;;;23.40;58.40;;;;;;5036971;28;20234;-80
2023/07/20 11:46:45;;;;;;;1.42;1.33;;;23.00;87.60;;;;;;5037181;28;20525;-81
2023/07/20 11:49:11;;;;;;;1.33;1.23;;;22.80;94.70;;;;;;5036828;28;20199;-81
2023/07/20 11:51:38;;;;;;;1.73;1.60;;;22.60;99.90;;;;;;5036223;28;20213;-80
2023/07/20 11:54:07;;;;;;;2.65;1.60;;;23.00;99.90;;;;;;5054401;28;20196;-80
2023/07/20 11:56:32;;;;;;;1.60;1.50;;;23.10;1.00;;;;;;5036345;28;20270;-82
2023/07/20 11:59:00;;;;;;;1.70;1.30;;;22.90;79.40;;;;;;5054861;28;20297;-80
2023/07/20 12:01:31;;;;;;;1.30;1.20;;;22.30;99.90;;;;;;5035780;28;20170;-80
2023/07/20 12:03:59;;;;;;;1.20;1.10;;;22.10;99.90;;;;;;5053876;28;20251;-80
2023/07/20 12:06:25;;;;;;;1.50;1.40;;;21.90;99.90;;;;;;5036569;28;20702;-80
2023/07/20 12:08:55;;;;;;;1.50;1.40;;;21.40;99.90;;;;;;5036406;28;20177;-80
2023/07/20 12:11:33;;;;;;;3.05;1.50;;;21.30;99.90;;;;;;5053447;28;20182;-80
2023/07/20 12:13:59;;;;;;;2.10;1.40;;;21.10;1.00;;;;;;5053885;28;20281;-80
2023/07/20 12:16:28;;;;;;;1.20;1.10;;;21.10;1.00;;;;;;5053738;28;20252;-80
2023/07/20 12:19:19;;;;;;;1.20;1.10;;;21.20;1.00;;;;;;5053745;28;20616;-80
2023/07/20 12:21:45;;;;;;;1.30;1.20;;;21.10;1.00;;;;;;5030788;28;20193;-80
2023/07/20 12:24:11;;;;;;;1.00;1.00;;;21.10;39.20;;;;;;5053785;28;20235;-80
2023/07/20 12:26:37;;;;;;;1.85;1.55;;;21.10;49.30;;;;;;5053662;28;20644;-80
2023/07/20 12:29:03;;;;;;;1.20;1.10;;;21.10;1.00;;;;;;5053739;28;20217;-80
2023/07/20 12:31:29;;;;;;;1.50;1.38;;;21.00;16.80;;;;;;5035336;28;20181;-80
2023/07/20 12:33:57;;;;;;;1.80;1.70;;;21.10;1.00;;;;;;5053227;28;20193;-80
2023/07/20 12:36:24;;;;;;;1.83;1.55;;;21.20;1.00;;;;;;5053808;28;20170;-80
2023/07/20 12:38:50;;;;;;;1.85;1.63;;;21.40;98.60;;;;;;5036091;28;20193;-80
2023/07/20 12:41:16;;;;;;;1.75;1.60;;;21.40;1.00;;;;;;5035083;28;20174;-80
2023/07/20 12:43:42;;;;;;;2.22;1.80;;;20.90;99.90;;;;;;5036200;28;20186;-79
2023/07/20 12:46:09;;;;;;;1.63;1.52;;;21.10;99.90;;;;;;5036190;28;20184;-80
2023/07/20 12:48:37;;;;;;;1.63;1.40;;;21.50;99.90;;;;;;5053860;28;20656;-80
2023/07/20 12:51:03;;;;;;;1.42;1.33;;;21.60;1.00;;;;;;5053225;28;20162;-80